Time;durP1;ratioP1;P1;durP2;ratioP2;P2;SDS_P1;SDS_P2;PMS_P1;PMS_P2;Temp;Humidity;BMP_temperature;BMP_pressure;BME280_temperature;BME280_humidity;BME280_pressure;Samples;Min_cycle;Max_cycle;Signal;HPM_P1;HPM_P2
2021/01/14 00:02:17;;;;;;;11.05;2.33;;;1.70;99.90;;;;;;5095462;28;20016;-70
2021/01/14 00:04:43;;;;;;;14.30;2.38;;;1.70;99.90;;;;;;5095440;28;20044;-70
2021/01/14 00:07:08;;;;;;;14.13;1.92;;;1.70;99.90;;;;;;5095067;28;20425;-70
2021/01/14 00:09:34;;;;;;;9.57;2.28;;;1.60;99.90;;;;;;5095047;28;20028;-70
2021/01/14 00:11:59;;;;;;;11.40;1.98;;;1.60;99.90;;;;;;5095298;28;20505;-70
2021/01/14 00:14:25;;;;;;;12.48;2.08;;;1.70;99.90;;;;;;5094690;28;20103;-70
2021/01/14 00:16:50;;;;;;;9.82;2.13;;;1.70;99.90;;;;;;5094668;28;20032;-70
2021/01/14 00:19:16;;;;;;;14.57;2.55;;;1.70;99.90;;;;;;5094641;28;20173;-70
2021/01/14 00:21:43;;;;;;;11.77;2.40;;;1.70;99.90;;;;;;5094815;28;20095;-71
2021/01/14 00:24:09;;;;;;;8.93;2.13;;;1.80;99.90;;;;;;5093903;28;20020;-71
2021/01/14 00:26:35;;;;;;;13.93;2.05;;;1.70;99.90;;;;;;5095039;28;20461;-70
2021/01/14 00:29:03;;;;;;;13.45;2.55;;;1.70;99.90;;;;;;5094695;28;20027;-70
2021/01/14 00:31:28;;;;;;;13.00;2.30;;;1.60;99.90;;;;;;5094923;28;20031;-70
2021/01/14 00:33:54;;;;;;;15.70;2.53;;;1.50;99.90;;;;;;5094870;28;20376;-70
2021/01/14 00:36:30;;;;;;;11.32;2.00;;;1.60;99.90;;;;;;5094844;28;20028;-70
2021/01/14 00:38:57;;;;;;;12.93;1.65;;;1.60;99.90;;;;;;5094461;28;20047;-70
2021/01/14 00:41:23;;;;;;;12.15;2.50;;;1.60;99.90;;;;;;5094445;28;20103;-70
2021/01/14 00:43:49;;;;;;;11.15;2.20;;;1.60;99.90;;;;;;5094139;28;20043;-70
2021/01/14 00:46:18;;;;;;;15.07;1.95;;;1.60;99.90;;;;;;5093147;28;20370;-70
2021/01/14 00:48:44;;;;;;;15.23;2.38;;;1.60;99.90;;;;;;5094076;28;20051;-70
2021/01/14 00:51:09;;;;;;;12.88;1.88;;;1.60;99.90;;;;;;5094460;28;20047;-70
2021/01/14 00:53:38;;;;;;;11.10;2.15;;;1.60;99.90;;;;;;5094570;28;20027;-70
2021/01/14 00:56:04;;;;;;;9.00;2.20;;;1.50;99.90;;;;;;5094515;28;20055;-70
2021/01/14 00:58:30;;;;;;;11.50;1.77;;;1.50;99.90;;;;;;5094467;28;20069;-70
2021/01/14 01:00:55;;;;;;;12.38;1.98;;;1.40;99.90;;;;;;5094361;28;20028;-70
2021/01/14 01:03:21;;;;;;;14.07;2.33;;;1.50;99.90;;;;;;5094435;28;20027;-70
2021/01/14 01:05:46;;;;;;;12.55;2.40;;;1.40;99.90;;;;;;5094396;28;20484;-70
2021/01/14 01:08:12;;;;;;;8.32;1.80;;;1.40;99.90;;;;;;5093775;28;20024;-70
2021/01/14 01:10:37;;;;;;;19.40;1.95;;;1.40;99.90;;;;;;5094066;28;20032;-70
2021/01/14 01:13:03;;;;;;;8.75;2.00;;;1.50;99.90;;;;;;5094283;28;20050;-70
2021/01/14 01:15:29;;;;;;;13.00;2.15;;;1.40;99.90;;;;;;5093717;28;20056;-70
2021/01/14 01:17:55;;;;;;;10.68;2.05;;;1.40;99.90;;;;;;5093957;28;20020;-70
2021/01/14 01:20:20;;;;;;;7.75;1.92;;;1.40;99.90;;;;;;5092158;28;20047;-70
2021/01/14 01:22:46;;;;;;;8.13;2.45;;;1.50;99.90;;;;;;5094206;28;20103;-70
2021/01/14 01:25:12;;;;;;;11.52;2.30;;;1.60;99.90;;;;;;5094131;28;20020;-70
2021/01/14 01:27:38;;;;;;;14.35;2.42;;;1.50;99.90;;;;;;5093169;28;20028;-70
2021/01/14 01:30:06;;;;;;;9.18;1.90;;;1.50;99.90;;;;;;5094083;28;20028;-70
2021/01/14 01:32:31;;;;;;;13.73;1.60;;;1.40;99.90;;;;;;5094094;28;20035;-70
2021/01/14 01:34:57;;;;;;;8.35;1.73;;;1.40;99.90;;;;;;5094071;28;20024;-70
2021/01/14 01:37:23;;;;;;;9.35;2.13;;;1.40;99.90;;;;;;5092523;28;20028;-70
2021/01/14 01:39:48;;;;;;;10.43;1.67;;;1.50;99.90;;;;;;5093951;28;20024;-70
2021/01/14 01:42:14;;;;;;;9.38;1.60;;;1.50;99.90;;;;;;5093448;28;20099;-70
2021/01/14 01:44:39;;;;;;;17.08;1.85;;;1.40;99.90;;;;;;5093695;28;20112;-70
2021/01/14 01:47:05;;;;;;;12.35;2.05;;;1.40;99.90;;;;;;5093944;28;20027;-71
2021/01/14 01:49:36;;;;;;;9.20;1.52;;;1.30;99.90;;;;;;5092107;28;20457;-70
2021/01/14 01:52:03;;;;;;;12.60;2.25;;;1.30;99.90;;;;;;5093363;28;20089;-70
2021/01/14 01:54:32;;;;;;;11.60;2.65;;;1.30;99.90;;;;;;5093883;28;20042;-71
2021/01/14 01:56:59;;;;;;;10.93;1.75;;;1.30;99.90;;;;;;5093889;28;20043;-71
2021/01/14 01:59:25;;;;;;;10.85;1.75;;;1.30;99.90;;;;;;5093250;28;20465;-70
2021/01/14 02:01:51;;;;;;;11.75;1.73;;;1.30;99.90;;;;;;5093969;28;20028;-70
2021/01/14 02:04:16;;;;;;;7.38;1.75;;;1.30;99.90;;;;;;5097781;28;20426;-70
2021/01/14 02:07:01;;;;;;;10.55;2.10;;;1.30;99.90;;;;;;5097708;28;20028;-70
2021/01/14 02:09:27;;;;;;;12.10;2.10;;;1.40;99.90;;;;;;5097697;28;20032;-70
2021/01/14 02:12:03;;;;;;;9.82;2.28;;;1.30;99.90;;;;;;5097370;28;20457;-70
2021/01/14 02:14:29;;;;;;;12.52;1.98;;;1.40;99.90;;;;;;5097567;28;20020;-70
2021/01/14 02:16:55;;;;;;;11.27;1.95;;;1.40;99.90;;;;;;5095715;28;20020;-70
2021/01/14 02:19:36;;;;;;;15.80;1.83;;;1.30;99.90;;;;;;5078654;28;20047;-71
2021/01/14 02:22:11;;;;;;;10.70;2.30;;;1.30;99.90;;;;;;5097396;28;20343;-70
2021/01/14 02:24:41;;;;;;;12.10;1.95;;;1.20;99.90;;;;;;5097420;28;20028;-70
2021/01/14 02:27:09;;;;;;;8.50;2.88;;;1.30;99.90;;;;;;5097047;28;20111;-70
2021/01/14 02:29:36;;;;;;;6.82;1.80;;;1.20;99.90;;;;;;5096131;28;20059;-70
2021/01/14 02:32:02;;;;;;;15.45;1.88;;;1.20;99.90;;;;;;5096051;28;20123;-70
2021/01/14 02:34:28;;;;;;;8.65;2.05;;;1.20;99.90;;;;;;5095726;28;20095;-70
2021/01/14 02:36:53;;;;;;;15.30;1.95;;;1.20;99.90;;;;;;5096866;28;20048;-70
2021/01/14 02:39:19;;;;;;;11.68;1.52;;;1.20;99.90;;;;;;5096758;28;20036;-70
2021/01/14 02:41:44;;;;;;;10.63;1.90;;;1.10;99.90;;;;;;5096794;28;20016;-70
2021/01/14 02:44:10;;;;;;;9.30;2.10;;;1.10;99.90;;;;;;5097008;28;20020;-70
2021/01/14 02:46:36;;;;;;;5.97;1.73;;;1.10;99.90;;;;;;5096943;28;20024;-70
2021/01/14 02:49:09;;;;;;;14.40;2.50;;;1.00;99.90;;;;;;5078161;28;20027;-70
2021/01/14 02:51:54;;;;;;;9.85;2.08;;;1.00;99.90;;;;;;5096865;28;20047;-70
2021/01/14 02:54:20;;;;;;;12.52;2.15;;;1.00;99.90;;;;;;5096770;28;20107;-70
2021/01/14 02:56:48;;;;;;;10.13;2.28;;;0.90;99.90;;;;;;5096477;28;20020;-70
2021/01/14 02:59:13;;;;;;;14.05;2.17;;;0.90;99.90;;;;;;5096616;28;20389;-70
2021/01/14 03:01:39;;;;;;;7.20;2.35;;;0.90;99.90;;;;;;5095224;28;20024;-70
2021/01/14 03:04:05;;;;;;;12.63;1.88;;;0.80;99.90;;;;;;5096601;28;20035;-70
2021/01/14 03:06:30;;;;;;;12.02;1.83;;;0.80;99.90;;;;;;5096586;28;20028;-70
2021/01/14 03:08:56;;;;;;;11.35;2.05;;;0.70;99.90;;;;;;5096247;28;20028;-70
2021/01/14 03:11:30;;;;;;;13.23;2.72;;;0.70;99.90;;;;;;5095942;28;20129;-70
2021/01/14 03:13:56;;;;;;;7.30;2.05;;;0.70;99.90;;;;;;5095822;28;20103;-70
2021/01/14 03:16:22;;;;;;;8.82;1.92;;;0.60;99.90;;;;;;5096363;28;20051;-70
2021/01/14 03:18:48;;;;;;;13.38;2.67;;;0.60;99.90;;;;;;5094494;28;20098;-70
2021/01/14 03:21:22;;;;;;;10.07;2.13;;;0.60;99.90;;;;;;5094482;28;20020;-70
2021/01/14 03:23:48;;;;;;;11.73;2.38;;;0.50;99.90;;;;;;5094442;28;20020;-70
2021/01/14 03:26:14;;;;;;;7.68;2.03;;;0.40;99.90;;;;;;5096162;28;20020;-70
2021/01/14 03:28:40;;;;;;;14.93;2.40;;;0.30;99.90;;;;;;5094320;28;20031;-70
2021/01/14 03:31:06;;;;;;;9.23;3.15;;;0.30;99.90;;;;;;5095802;28;20028;-70
2021/01/14 03:33:32;;;;;;;12.07;1.90;;;0.30;99.90;;;;;;5095746;28;20095;-70
2021/01/14 03:35:58;;;;;;;10.95;2.28;;;0.20;99.90;;;;;;5095994;28;20354;-70
2021/01/14 03:38:24;;;;;;;11.27;2.10;;;0.30;99.90;;;;;;5095942;28;20028;-70
2021/01/14 03:40:50;;;;;;;14.98;2.75;;;0.40;99.90;;;;;;5095557;28;20051;-70
2021/01/14 03:43:16;;;;;;;10.60;1.98;;;0.30;99.90;;;;;;5094295;28;20489;-70
2021/01/14 03:45:41;;;;;;;8.27;2.22;;;0.30;99.90;;;;;;5095820;28;20024;-70
2021/01/14 03:48:07;;;;;;;15.85;2.13;;;0.40;99.90;;;;;;5095745;28;20051;-70
2021/01/14 03:50:33;;;;;;;12.70;2.30;;;0.30;99.90;;;;;;5093955;28;20487;-70
2021/01/14 03:52:58;;;;;;;15.27;1.90;;;0.20;99.90;;;;;;5093843;28;20031;-70
2021/01/14 03:55:25;;;;;;;9.27;1.75;;;0.30;99.90;;;;;;5095599;28;20103;-70
2021/01/14 03:57:50;;;;;;;9.88;2.35;;;0.30;99.90;;;;;;5094125;28;20024;-70
2021/01/14 04:00:17;;;;;;;13.93;2.72;;;0.20;99.90;;;;;;5095484;28;20078;-70
2021/01/14 04:02:42;;;;;;;9.57;1.80;;;0.10;99.90;;;;;;5095487;28;20052;-70
2021/01/14 04:05:09;;;;;;;12.88;2.10;;;-0.10;99.90;;;;;;5095451;28;20055;-70
2021/01/14 04:07:34;;;;;;;7.38;1.77;;;-0.20;99.90;;;;;;5095390;28;20019;-70
2021/01/14 04:10:01;;;;;;;11.00;2.15;;;-0.20;99.90;;;;;;5095079;28;20028;-70
2021/01/14 04:12:28;;;;;;;11.38;2.47;;;-0.10;99.90;;;;;;5094188;28;20111;-70
2021/01/14 04:14:55;;;;;;;13.18;3.35;;;-0.10;99.90;;;;;;5095249;28;20027;-70
2021/01/14 04:17:20;;;;;;;15.65;2.65;;;-0.20;99.90;;;;;;5093748;28;20107;-70
2021/01/14 04:19:46;;;;;;;11.18;2.25;;;-0.20;99.90;;;;;;5094505;28;20119;-70
2021/01/14 04:22:13;;;;;;;8.35;2.50;;;-0.30;99.90;;;;;;5093626;28;20156;-70
2021/01/14 04:24:39;;;;;;;10.27;1.92;;;-0.40;99.90;;;;;;5094393;28;20012;-70
2021/01/14 04:27:05;;;;;;;9.15;1.98;;;-0.40;99.90;;;;;;5093856;28;20365;-70
2021/01/14 04:29:31;;;;;;;15.55;2.53;;;-0.40;99.90;;;;;;5093809;28;20028;-70
2021/01/14 04:31:56;;;;;;;15.15;2.65;;;-0.40;99.90;;;;;;5094924;28;20028;-70
2021/01/14 04:34:22;;;;;;;8.27;2.35;;;-0.40;99.90;;;;;;5095217;28;20396;-70
2021/01/14 04:36:54;;;;;;;11.90;2.22;;;-0.50;99.90;;;;;;5093044;28;20024;-70
2021/01/14 04:39:20;;;;;;;7.03;1.83;;;-0.50;99.90;;;;;;5094485;28;20123;-70
2021/01/14 04:41:48;;;;;;;14.38;2.40;;;-0.50;99.90;;;;;;5094273;28;20114;-70
2021/01/14 04:44:14;;;;;;;12.40;2.70;;;-0.60;99.90;;;;;;5094721;28;20019;-70
2021/01/14 04:46:40;;;;;;;14.85;3.10;;;-0.70;99.90;;;;;;5094098;28;20040;-70
2021/01/14 04:49:06;;;;;;;9.75;2.70;;;-0.70;99.90;;;;;;5094679;28;20044;-70
2021/01/14 04:51:33;;;;;;;10.27;2.95;;;-0.70;99.90;;;;;;5094623;28;20022;-70
2021/01/14 04:54:02;;;;;;;11.32;2.80;;;-0.60;99.90;;;;;;5092857;28;20101;-70
2021/01/14 04:56:34;;;;;;;7.00;1.98;;;-0.60;99.90;;;;;;5094282;28;20095;-70
2021/01/14 04:59:03;;;;;;;18.55;2.45;;;-0.70;99.90;;;;;;5094408;28;20069;-70
2021/01/14 05:01:32;;;;;;;14.27;2.80;;;-0.80;99.90;;;;;;5094517;28;20071;-70
2021/01/14 05:03:59;;;;;;;12.13;3.00;;;-0.80;99.90;;;;;;5094424;28;20031;-70
2021/01/14 05:06:25;;;;;;;17.63;3.47;;;-0.80;99.90;;;;;;5094366;28;20016;-70
2021/01/14 05:08:56;;;;;;;17.00;2.50;;;-0.90;99.90;;;;;;5093081;28;20031;-70
2021/01/14 05:11:25;;;;;;;9.88;3.00;;;-0.90;99.90;;;;;;5094349;28;20060;-70
2021/01/14 05:13:50;;;;;;;9.23;3.40;;;-0.90;99.90;;;;;;5094275;28;20107;-70
2021/01/14 05:16:16;;;;;;;9.27;2.75;;;-1.00;99.90;;;;;;5094278;28;20145;-71
2021/01/14 05:18:41;;;;;;;7.97;2.88;;;-1.00;99.90;;;;;;5093907;28;20048;-70
2021/01/14 05:21:07;;;;;;;13.75;3.25;;;-1.00;99.90;;;;;;5094119;28;20024;-70
2021/01/14 05:23:33;;;;;;;11.80;4.50;;;-1.00;99.90;;;;;;5094180;28;20373;-70
2021/01/14 05:26:00;;;;;;;14.90;4.20;;;-1.00;99.90;;;;;;5075522;28;20027;-70
2021/01/14 05:28:28;;;;;;;16.00;4.00;;;-1.00;99.90;;;;;;5075514;28;20389;-70
2021/01/14 05:30:58;;;;;;;19.15;5.10;;;-1.00;99.90;;;;;;5092666;28;20530;-70
2021/01/14 05:33:24;;;;;;;15.13;4.65;;;-1.00;99.90;;;;;;5094112;28;20136;-70
2021/01/14 05:35:51;;;;;;;13.32;4.93;;;-1.10;99.90;;;;;;5095764;28;20496;-70
2021/01/14 05:38:28;;;;;;;25.38;4.82;;;-1.10;99.90;;;;;;5098264;28;20458;-70
2021/01/14 05:41:11;;;;;;;17.02;4.20;;;-1.10;99.90;;;;;;5097900;28;20111;-70
2021/01/14 05:43:57;;;;;;;12.15;3.78;;;-1.10;99.90;;;;;;5098210;28;20024;-70
2021/01/14 05:46:27;;;;;;;14.32;5.57;;;-1.10;99.90;;;;;;5098028;28;20051;-70
2021/01/14 05:48:54;;;;;;;17.77;5.80;;;-1.00;99.90;;;;;;5098037;28;20024;-70
2021/01/14 05:51:23;;;;;;;18.60;7.07;;;-1.00;99.90;;;;;;5098008;28;20368;-70
2021/01/14 05:53:54;;;;;;;17.67;6.10;;;-1.00;99.90;;;;;;5097733;28;20075;-70
2021/01/14 05:56:32;;;;;;;19.30;5.25;;;-1.00;99.90;;;;;;5097729;28;20065;-70
2021/01/14 05:58:59;;;;;;;13.88;4.28;;;-1.00;99.90;;;;;;5097205;28;20024;-70
2021/01/14 06:01:25;;;;;;;17.27;4.20;;;-0.90;99.90;;;;;;5097834;28;20023;-70
2021/01/14 06:03:50;;;;;;;10.13;3.90;;;-0.90;99.90;;;;;;5097486;28;20020;-70
2021/01/14 06:06:16;;;;;;;16.27;5.28;;;-0.80;99.90;;;;;;5097441;28;20057;-70
2021/01/14 06:08:42;;;;;;;18.85;5.00;;;-0.80;99.90;;;;;;5097353;28;20031;-70
2021/01/14 06:11:23;;;;;;;22.02;4.97;;;-0.70;99.90;;;;;;5096400;28;20033;-70
2021/01/14 06:13:49;;;;;;;15.75;4.18;;;-0.60;99.90;;;;;;5096141;28;20477;-70
2021/01/14 06:16:16;;;;;;;14.57;3.80;;;-0.60;99.90;;;;;;5097592;28;20507;-70
2021/01/14 06:19:01;;;;;;;21.50;4.63;;;-0.50;99.90;;;;;;5097001;28;20040;-70
2021/01/14 06:21:45;;;;;;;17.88;3.80;;;-0.50;99.90;;;;;;5096765;28;20042;-70
2021/01/14 06:24:18;;;;;;;9.38;3.60;;;-0.40;99.90;;;;;;5097378;28;20052;-70
2021/01/14 06:26:44;;;;;;;23.70;4.45;;;-0.30;99.90;;;;;;5097343;28;20024;-70
2021/01/14 06:29:30;;;;;;;19.77;5.78;;;-0.30;99.90;;;;;;5097237;28;20082;-70
2021/01/14 06:32:16;;;;;;;24.30;4.38;;;-0.20;99.90;;;;;;5096673;28;20021;-70
2021/01/14 06:34:44;;;;;;;25.15;6.22;;;-0.10;99.90;;;;;;5096601;28;20023;-70
2021/01/14 06:37:12;;;;;;;20.60;5.60;;;-0.10;99.90;;;;;;5097106;28;20024;-70
2021/01/14 06:39:43;;;;;;;18.00;4.90;;;-0.10;99.90;;;;;;5096729;28;20457;-70
2021/01/14 06:44:57;;;;;;;37.08;8.20;;;0.10;99.90;;;;;;5112237;27;20355;-70
2021/01/14 06:47:44;;;;;;;28.40;7.60;;;0.20;99.90;;;;;;5111382;28;20050;-70
2021/01/14 06:50:19;;;;;;;20.95;5.40;;;0.30;99.90;;;;;;5111821;28;20044;-71
2021/01/14 06:52:50;;;;;;;12.30;3.67;;;0.30;99.90;;;;;;5111533;28;20103;-70
2021/01/14 06:55:18;;;;;;;13.82;3.72;;;0.20;99.90;;;;;;5111713;28;20503;-71
2021/01/14 06:58:07;;;;;;;13.20;3.55;;;0.30;99.90;;;;;;5111538;28;20020;-71
2021/01/14 07:00:39;;;;;;;11.80;3.70;;;0.30;99.90;;;;;;5111403;28;20043;-71
2021/01/14 07:03:18;;;;;;;12.80;4.43;;;0.30;99.90;;;;;;5110866;28;20077;-70
2021/01/14 07:05:59;;;;;;;19.83;6.32;;;0.30;99.90;;;;;;5110428;28;20377;-71
2021/01/14 07:08:36;;;;;;;13.38;4.43;;;0.30;99.90;;;;;;5110968;28;20023;-70
2021/01/14 07:11:13;;;;;;;14.45;4.00;;;0.20;99.90;;;;;;5111167;28;20047;-71
2021/01/14 07:13:44;;;;;;;15.13;3.80;;;0.20;99.90;;;;;;5110830;28;20024;-70
2021/01/14 07:16:12;;;;;;;14.27;3.55;;;0.10;99.90;;;;;;5111063;28;20051;-71
2021/01/14 07:18:40;;;;;;;11.43;3.63;;;0.10;99.90;;;;;;5111287;28;20019;-71
2021/01/14 07:21:35;;;;;;;10.85;2.95;;;0.00;99.90;;;;;;5111202;28;20152;-71
2021/01/14 07:24:21;;;;;;;10.75;2.88;;;-0.10;99.90;;;;;;5110415;28;20461;-71
2021/01/14 07:26:50;;;;;;;13.32;3.97;;;-0.20;99.90;;;;;;5110801;28;20020;-71
2021/01/14 07:29:16;;;;;;;9.35;3.75;;;-0.20;99.90;;;;;;5111104;28;20417;-68
2021/01/14 07:31:53;;;;;;;15.38;6.03;;;-0.20;99.90;;;;;;5110929;28;20381;-70
2021/01/14 07:34:43;;;;;;;15.50;4.47;;;-0.20;99.90;;;;;;5109314;28;20081;-70
2021/01/14 07:37:16;;;;;;;18.05;4.88;;;-0.30;99.90;;;;;;5110405;28;20095;-70
2021/01/14 07:39:48;;;;;;;10.23;3.65;;;-0.30;99.90;;;;;;5109100;28;20036;-70
2021/01/14 07:42:29;;;;;;;11.98;4.07;;;-0.20;99.90;;;;;;5105917;28;20032;-70
2021/01/14 07:44:59;;;;;;;11.00;4.20;;;-0.20;99.90;;;;;;5118150;28;20122;-70
2021/01/14 07:47:28;;;;;;;15.25;3.45;;;-0.10;99.90;;;;;;5130480;27;20046;-71
2021/01/14 07:49:54;;;;;;;14.75;3.72;;;0.00;99.90;;;;;;5130370;27;20483;-70
2021/01/14 07:52:30;;;;;;;9.57;3.08;;;0.00;99.90;;;;;;5130533;27;20484;-70
2021/01/14 07:54:57;;;;;;;15.93;4.20;;;0.00;99.90;;;;;;5122591;28;20153;-70
2021/01/14 07:57:27;;;;;;;9.20;3.22;;;0.00;99.90;;;;;;5115369;28;20047;-70
2021/01/14 07:59:56;;;;;;;16.75;3.60;;;0.00;99.90;;;;;;5100391;27;20020;-70
2021/01/14 08:02:22;;;;;;;12.65;3.85;;;0.00;99.90;;;;;;5095454;28;20487;-70
2021/01/14 08:04:48;;;;;;;11.85;3.63;;;0.00;99.90;;;;;;5094933;28;20103;-70
2021/01/14 08:07:24;;;;;;;11.30;3.90;;;0.00;99.90;;;;;;5094498;28;20020;-70
2021/01/14 08:09:52;;;;;;;14.77;4.97;;;0.10;99.90;;;;;;5094755;28;20028;-70
2021/01/14 08:12:19;;;;;;;17.35;5.75;;;0.10;99.90;;;;;;5095944;28;20142;-70
2021/01/14 08:14:45;;;;;;;17.13;5.45;;;0.20;99.90;;;;;;5095307;28;20024;-70
2021/01/14 08:17:21;;;;;;;18.25;5.75;;;0.20;99.90;;;;;;5094707;28;20032;-70
2021/01/14 08:19:48;;;;;;;13.85;4.60;;;0.20;99.90;;;;;;5095702;28;20016;-70
2021/01/14 08:22:14;;;;;;;13.50;4.63;;;0.30;99.90;;;;;;5096095;28;20020;-70
2021/01/14 08:25:02;;;;;;;12.07;3.95;;;0.30;99.90;;;;;;5094245;28;20020;-70
2021/01/14 08:27:30;;;;;;;12.95;4.65;;;0.30;99.90;;;;;;5095703;28;20016;-70
2021/01/14 08:30:00;;;;;;;16.02;4.30;;;0.40;99.90;;;;;;5095694;28;20043;-70
2021/01/14 08:32:48;;;;;;;16.48;5.85;;;0.40;99.90;;;;;;5095641;28;20089;-71
2021/01/14 08:38:02;;;;;;;12.65;4.70;;;0.40;99.90;;;;;;5091124;28;20850;-69
2021/01/14 08:40:31;;;;;;;15.00;4.97;;;0.50;99.90;;;;;;5090812;28;20474;-70
2021/01/14 08:45:51;;;;;;;10.07;5.07;;;0.60;99.90;;;;;;5111296;27;20347;-69
2021/01/14 08:48:32;;;;;;;14.15;4.68;;;0.80;99.90;;;;;;5111124;28;20016;-69
2021/01/14 08:53:37;;;;;;;13.18;4.05;;;0.90;99.90;;;;;;5111114;27;20111;-69
2021/01/14 08:56:08;;;;;;;13.90;4.05;;;1.00;99.90;;;;;;5111028;28;20094;-69
2021/01/14 08:58:50;;;;;;;14.10;3.45;;;0.90;99.90;;;;;;5109670;28;20016;-69
2021/01/14 09:01:21;;;;;;;10.05;4.38;;;0.90;99.90;;;;;;5110983;28;20030;-69
2021/01/14 09:03:49;;;;;;;15.65;4.68;;;0.90;99.90;;;;;;5111167;28;20051;-69
2021/01/14 09:06:15;;;;;;;14.25;5.43;;;0.90;99.90;;;;;;5110838;28;20028;-69
2021/01/14 09:08:41;;;;;;;12.18;4.30;;;0.90;99.90;;;;;;5110599;28;20043;-69
2021/01/14 09:11:07;;;;;;;14.85;5.07;;;0.80;99.90;;;;;;5110728;28;20039;-69
2021/01/14 09:13:33;;;;;;;13.45;4.97;;;0.80;99.90;;;;;;5110633;28;20019;-69
2021/01/14 09:16:08;;;;;;;13.63;4.68;;;0.90;99.90;;;;;;5111158;28;20024;-69
2021/01/14 09:18:37;;;;;;;20.77;5.97;;;0.90;99.90;;;;;;5109408;28;20338;-70
2021/01/14 09:21:04;;;;;;;7.78;4.35;;;0.90;99.90;;;;;;5108883;28;20024;-69
2021/01/14 09:23:33;;;;;;;14.80;4.50;;;0.90;99.90;;;;;;5110822;28;20028;-69
2021/01/14 09:26:03;;;;;;;11.05;4.10;;;0.90;99.90;;;;;;5109837;28;20024;-69
2021/01/14 09:28:30;;;;;;;8.02;4.72;;;0.90;99.90;;;;;;5109104;28;20023;-69
2021/01/14 09:31:00;;;;;;;14.48;5.32;;;0.90;99.90;;;;;;5109106;28;20103;-69
2021/01/14 09:33:28;;;;;;;19.50;5.57;;;1.00;99.90;;;;;;5110142;28;20054;-69
2021/01/14 09:36:15;;;;;;;13.07;5.63;;;1.00;99.90;;;;;;5110343;28;20019;-69
2021/01/14 09:38:46;;;;;;;23.27;6.00;;;1.00;99.90;;;;;;5090210;28;20384;-69
2021/01/14 09:41:12;;;;;;;15.20;6.30;;;1.00;99.90;;;;;;5089770;28;20443;-69
2021/01/14 09:43:40;;;;;;;11.55;4.80;;;1.10;99.90;;;;;;5088926;28;20055;-69
2021/01/14 09:46:12;;;;;;;17.52;4.85;;;1.10;99.90;;;;;;5089395;28;20020;-69
2021/01/14 09:48:38;;;;;;;15.38;4.05;;;1.10;99.90;;;;;;5089663;28;20024;-70
2021/01/14 09:51:09;;;;;;;12.18;4.35;;;1.10;99.90;;;;;;5088426;28;20465;-70
2021/01/14 09:53:41;;;;;;;14.65;4.30;;;1.00;99.90;;;;;;5089200;28;20044;-69
2021/01/14 09:56:09;;;;;;;19.25;5.20;;;1.10;99.90;;;;;;5088006;28;20095;-69
2021/01/14 09:58:39;;;;;;;12.07;4.55;;;1.10;99.90;;;;;;5088838;28;20016;-69
2021/01/14 10:01:08;;;;;;;21.17;4.75;;;1.10;99.90;;;;;;5088722;28;20450;-69
2021/01/14 10:03:35;;;;;;;13.73;4.47;;;1.10;99.90;;;;;;5083483;28;20028;-69
2021/01/14 10:06:01;;;;;;;17.40;5.35;;;1.20;99.90;;;;;;5074934;28;20108;-69
2021/01/14 10:08:29;;;;;;;12.35;4.78;;;1.20;99.90;;;;;;5075311;28;20029;-69
2021/01/14 10:10:56;;;;;;;10.80;5.40;;;1.20;99.90;;;;;;5074934;28;20415;-69
2021/01/14 10:13:21;;;;;;;14.07;5.35;;;1.20;99.90;;;;;;5074095;28;20032;-69
2021/01/14 10:15:47;;;;;;;14.65;5.30;;;1.30;99.90;;;;;;5073962;28;20029;-69
2021/01/14 10:18:28;;;;;;;12.80;5.05;;;1.30;99.90;;;;;;5075326;28;20024;-70
2021/01/14 10:21:02;;;;;;;12.00;5.10;;;1.30;99.90;;;;;;5075257;28;20465;-68
2021/01/14 10:23:29;;;;;;;11.00;5.22;;;1.40;99.90;;;;;;5074898;28;20039;-69
2021/01/14 10:25:55;;;;;;;22.20;6.65;;;1.50;99.90;;;;;;5075488;28;20025;-69
2021/01/14 10:28:22;;;;;;;14.50;6.05;;;1.60;99.90;;;;;;5075125;28;20039;-68
2021/01/14 10:30:47;;;;;;;18.73;5.90;;;1.60;99.90;;;;;;5057473;28;20107;-68
2021/01/14 10:33:13;;;;;;;13.63;6.07;;;1.70;99.90;;;;;;5075153;28;20116;-68
2021/01/14 10:35:39;;;;;;;19.02;6.57;;;1.70;99.90;;;;;;5083976;28;20034;-70
2021/01/14 10:38:10;;;;;;;17.45;6.05;;;1.70;99.90;;;;;;5094037;28;20077;-71
2021/01/14 10:40:56;;;;;;;12.60;5.47;;;1.70;99.90;;;;;;5095407;28;20024;-70
2021/01/14 10:43:30;;;;;;;14.40;6.20;;;1.70;99.90;;;;;;5094789;28;20028;-70
2021/01/14 10:45:56;;;;;;;26.20;7.97;;;1.80;99.90;;;;;;5095376;28;20016;-70
2021/01/14 10:48:22;;;;;;;20.30;7.45;;;1.80;99.90;;;;;;5094931;28;20492;-70
2021/01/14 10:50:52;;;;;;;19.38;8.63;;;1.70;99.90;;;;;;5094755;28;20425;-70
2021/01/14 10:53:27;;;;;;;20.95;7.75;;;1.70;99.90;;;;;;5094958;28;20036;-70
2021/01/14 10:56:02;;;;;;;19.75;7.22;;;1.80;99.90;;;;;;5094860;28;20016;-70
2021/01/14 10:58:28;;;;;;;19.45;7.72;;;1.80;99.90;;;;;;5094594;28;20453;-70
2021/01/14 11:00:55;;;;;;;19.17;8.15;;;1.90;99.90;;;;;;5094713;28;20052;-70
2021/01/14 11:03:23;;;;;;;16.20;7.63;;;2.00;99.90;;;;;;5094422;28;20028;-70
2021/01/14 11:05:52;;;;;;;20.30;8.10;;;2.00;99.90;;;;;;5094822;28;20069;-70
2021/01/14 11:08:24;;;;;;;18.67;8.07;;;2.00;99.90;;;;;;5094753;28;20107;-70
2021/01/14 11:11:11;;;;;;;20.30;8.43;;;2.00;99.90;;;;;;5093081;28;20147;-70
2021/01/14 11:13:46;;;;;;;26.20;8.25;;;2.00;99.90;;;;;;5093192;28;20035;-70
2021/01/14 11:16:13;;;;;;;19.38;8.52;;;1.90;99.90;;;;;;5093164;28;20099;-70
2021/01/14 11:18:41;;;;;;;18.50;8.32;;;1.90;99.90;;;;;;5094347;28;20039;-70
2021/01/14 11:21:08;;;;;;;14.95;7.07;;;2.00;99.90;;;;;;5093174;28;20024;-69
2021/01/14 11:23:34;;;;;;;17.73;6.88;;;2.10;99.90;;;;;;5092864;28;20024;-70
2021/01/14 11:26:02;;;;;;;17.13;6.55;;;1.90;99.90;;;;;;5093897;28;20028;-70
2021/01/14 11:28:29;;;;;;;17.55;7.22;;;1.90;99.90;;;;;;5093966;28;20491;-70
2021/01/14 11:30:55;;;;;;;17.17;6.68;;;1.90;99.90;;;;;;5094103;28;20039;-70
2021/01/14 11:33:20;;;;;;;19.92;7.43;;;1.80;99.90;;;;;;5092409;28;20039;-70
2021/01/14 11:35:46;;;;;;;20.98;7.10;;;1.80;99.90;;;;;;5072574;28;20111;-70
2021/01/14 11:38:11;;;;;;;19.65;7.35;;;1.80;99.90;;;;;;5073362;28;20420;-70
2021/01/14 11:40:37;;;;;;;22.20;7.90;;;1.80;99.90;;;;;;5073225;28;20082;-70
2021/01/14 11:43:02;;;;;;;14.57;7.35;;;1.90;99.90;;;;;;5073224;28;20103;-70
2021/01/14 11:45:30;;;;;;;14.98;7.60;;;1.90;99.90;;;;;;5073243;28;20052;-70
2021/01/14 11:47:55;;;;;;;17.45;7.53;;;1.80;99.90;;;;;;5073724;28;20028;-70
2021/01/14 11:50:21;;;;;;;17.33;7.97;;;1.90;99.90;;;;;;5071287;28;20031;-70
2021/01/14 11:52:46;;;;;;;15.18;7.88;;;2.00;99.90;;;;;;5072949;28;20499;-70
2021/01/14 11:55:12;;;;;;;21.38;8.52;;;2.00;99.90;;;;;;5073243;28;20438;-70
2021/01/14 11:57:38;;;;;;;14.38;8.02;;;2.10;99.90;;;;;;5072508;28;20027;-70
2021/01/14 12:00:08;;;;;;;20.30;8.13;;;2.10;99.90;;;;;;5072869;28;20390;-70
2021/01/14 12:02:33;;;;;;;20.10;8.75;;;2.00;99.90;;;;;;5073315;28;20116;-70
2021/01/14 12:04:59;;;;;;;22.83;7.38;;;2.00;99.90;;;;;;5073633;28;20108;-70
2021/01/14 12:07:24;;;;;;;22.83;8.40;;;2.00;99.90;;;;;;5071474;28;20055;-70
2021/01/14 12:09:50;;;;;;;17.75;8.00;;;2.10;99.90;;;;;;5073591;28;20032;-70
2021/01/14 12:12:15;;;;;;;18.08;8.10;;;2.10;99.90;;;;;;5072871;28;20047;-70
2021/01/14 12:14:41;;;;;;;14.30;6.95;;;2.10;99.90;;;;;;5073555;28;20335;-70
2021/01/14 12:17:06;;;;;;;20.25;7.95;;;2.20;99.90;;;;;;5073451;28;20025;-70
2021/01/14 12:19:32;;;;;;;15.98;7.45;;;2.20;99.90;;;;;;5072798;28;20386;-70
2021/01/14 12:22:00;;;;;;;17.98;7.65;;;2.20;99.90;;;;;;5073263;28;20032;-71
2021/01/14 12:24:25;;;;;;;18.30;8.05;;;2.20;99.90;;;;;;5072773;28;20028;-69
2021/01/14 12:26:51;;;;;;;32.22;9.30;;;2.20;99.90;;;;;;5072299;28;20367;-69
2021/01/14 12:29:16;;;;;;;14.55;7.68;;;2.20;99.90;;;;;;5073260;28;20033;-69
2021/01/14 12:31:42;;;;;;;18.13;7.65;;;2.20;99.90;;;;;;5072615;28;20508;-69
2021/01/14 12:34:07;;;;;;;16.60;7.75;;;2.30;99.90;;;;;;5072169;28;20021;-69
2021/01/14 12:36:33;;;;;;;14.98;8.00;;;2.40;99.90;;;;;;5088817;28;20115;-68
2021/01/14 12:38:58;;;;;;;17.20;7.45;;;2.40;99.90;;;;;;5093277;28;20469;-69
2021/01/14 12:41:32;;;;;;;17.55;7.78;;;2.40;99.90;;;;;;5091286;28;20027;-69
2021/01/14 12:43:59;;;;;;;17.10;7.10;;;2.40;99.90;;;;;;5091886;28;20082;-69
2021/01/14 12:46:41;;;;;;;17.92;8.02;;;2.50;99.90;;;;;;5091951;28;20044;-69
2021/01/14 12:49:07;;;;;;;15.30;7.32;;;2.50;99.90;;;;;;5092849;28;20115;-70
2021/01/14 12:51:34;;;;;;;17.35;7.50;;;2.70;99.90;;;;;;5092105;28;20019;-70
2021/01/14 12:54:00;;;;;;;18.05;7.32;;;3.00;99.90;;;;;;5092100;28;20064;-70
2021/01/14 12:56:25;;;;;;;19.65;7.15;;;3.20;99.90;;;;;;5093181;28;20426;-70
2021/01/14 12:58:51;;;;;;;15.30;7.15;;;3.30;99.90;;;;;;5092827;28;20028;-70
2021/01/14 13:01:16;;;;;;;16.73;7.47;;;3.30;99.90;;;;;;5092681;28;20152;-70
2021/01/14 13:03:42;;;;;;;13.48;7.68;;;3.20;99.90;;;;;;5074636;28;20031;-71
2021/01/14 13:06:08;;;;;;;16.25;7.97;;;3.30;99.90;;;;;;5092399;28;20085;-70